Time;durP1;ratioP1;P1;durP2;ratioP2;P2;SDS_P1;SDS_P2;PMS_P1;PMS_P2;Temp;Humidity;BMP_temperature;BMP_pressure;BME280_temperature;BME280_humidity;BME280_pressure;Samples;Min_cycle;Max_cycle;Signal;HPM_P1;HPM_P2
2021/08/18 00:00:45;;;;;;;6.07;5.47;;;;;;;;;;5031735;28;20251;-85
2021/08/18 00:03:11;;;;;;;6.37;5.77;;;;;;;;;;5011172;28;20194;-84
2021/08/18 00:05:38;;;;;;;6.13;5.53;;;;;;;;;;5023546;28;20190;-85
2021/08/18 00:08:05;;;;;;;6.23;5.63;;;;;;;;;;5011925;28;20205;-84
2021/08/18 00:10:31;;;;;;;6.10;5.60;;;;;;;;;;5008685;28;20550;-85
2021/08/18 00:12:57;;;;;;;5.97;5.47;;;;;;;;;;5027214;28;20200;-84
2021/08/18 00:15:24;;;;;;;9.13;5.20;;;;;;;;;;5002683;28;20233;-84
2021/08/18 00:17:51;;;;;;;6.00;5.50;;;;;;;;;;5016519;28;20648;-85
2021/08/18 00:20:17;;;;;;;5.17;4.77;;;;;;;;;;5015240;28;20187;-84
2021/08/18 00:22:44;;;;;;;5.17;4.77;;;;;;;;;;5008839;28;20182;-85
2021/08/18 00:25:11;;;;;;;6.10;5.57;;;;;;;;;;5023050;28;20182;-85
2021/08/18 00:27:37;;;;;;;5.47;5.00;;;;;;;;;;5018368;28;20197;-85
2021/08/18 00:30:04;;;;;;;4.67;4.27;;;;;;;;;;5037098;28;20609;-85
2021/08/18 00:32:30;;;;;;;5.03;4.63;;;;;;;;;;5018622;28;20327;-84
2021/08/18 00:34:56;;;;;;;4.93;4.43;;;;;;;;;;5018895;28;20227;-85
2021/08/18 00:37:22;;;;;;;5.07;4.67;;;;;;;;;;5019970;28;20187;-84
2021/08/18 00:39:48;;;;;;;4.93;4.53;;;;;;;;;;5017755;28;20197;-85
2021/08/18 00:42:15;;;;;;;4.40;4.00;;;;;;;;;;5032059;28;20181;-85
2021/08/18 00:44:41;;;;;;;4.67;4.30;;;;;;;;;;5038753;28;20174;-85
2021/08/18 00:47:07;;;;;;;4.80;4.40;;;;;;;;;;5031193;28;20187;-85
2021/08/18 00:49:34;;;;;;;4.63;4.23;;;;;;;;;;5029911;28;20256;-85
2021/08/18 00:52:01;;;;;;;4.50;4.00;;;;;;;;;;5036417;28;20186;-85
2021/08/18 00:54:27;;;;;;;4.30;3.93;;;;;;;;;;5006010;28;20208;-85
2021/08/18 00:56:53;;;;;;;3.93;3.63;;;;;;;;;;5041317;28;20244;-85
2021/08/18 00:59:20;;;;;;;5.00;4.00;;;;;;;;;;5017192;28;20256;-85
2021/08/18 01:01:46;;;;;;;4.00;3.70;;;;;;;;;;5019029;28;20186;-85
2021/08/18 01:04:12;;;;;;;3.73;3.43;;;;;;;;;;5002761;28;20248;-85
2021/08/18 01:06:40;;;;;;;3.77;3.47;;;;;;;;;;5025593;28;20201;-84
2021/08/18 01:09:33;;;;;;;3.80;3.50;;;;;;;;;;5036142;28;20275;-85
2021/08/18 01:12:00;;;;;;;3.87;3.57;;;;;;;;;;5026142;28;21939;-85
2021/08/18 01:14:26;;;;;;;3.60;3.30;;;;;;;;;;5018592;28;20696;-85
2021/08/18 01:16:52;;;;;;;3.90;3.50;;;;;;;;;;5030942;28;20535;-85
2021/08/18 01:19:19;;;;;;;4.30;4.00;;;;;;;;;;5011724;28;20527;-85
2021/08/18 01:21:46;;;;;;;4.07;3.77;;;;;;;;;;5034656;28;20186;-85
2021/08/18 01:24:12;;;;;;;4.27;3.90;;;;;;;;;;5017910;28;20186;-85
2021/08/18 01:26:39;;;;;;;4.60;4.20;;;;;;;;;;5018533;28;20241;-85
2021/08/18 01:29:06;;;;;;;4.13;3.73;;;;;;;;;;5014917;28;20209;-85
2021/08/18 01:31:32;;;;;;;4.40;4.10;;;;;;;;;;5013591;28;20665;-85
2021/08/18 01:34:02;;;;;;;4.40;4.00;;;;;;;;;;5028857;28;20209;-85
2021/08/18 01:36:29;;;;;;;4.87;4.37;;;;;;;;;;5042554;28;20541;-85
2021/08/18 01:39:00;;;;;;;4.80;4.40;;;;;;;;;;5016412;28;20207;-85
2021/08/18 01:41:26;;;;;;;4.77;4.23;;;;;;;;;;5023315;28;20194;-85
2021/08/18 01:43:52;;;;;;;4.90;4.50;;;;;;;;;;5019394;28;20272;-85
2021/08/18 01:46:20;;;;;;;5.10;4.60;;;;;;;;;;5044732;28;20185;-85
2021/08/18 01:48:46;;;;;;;4.67;4.27;;;;;;;;;;5018952;28;20256;-85
2021/08/18 01:51:12;;;;;;;4.80;4.33;;;;;;;;;;5017351;28;20266;-85
2021/08/18 01:53:42;;;;;;;5.03;4.53;;;;;;;;;;5017434;28;20263;-85
2021/08/18 01:56:09;;;;;;;5.57;5.17;;;;;;;;;;5032461;28;20214;-85
2021/08/18 01:58:36;;;;;;;5.40;4.90;;;;;;;;;;5016382;28;20209;-85
2021/08/18 02:01:03;;;;;;;5.43;4.93;;;;;;;;;;5016777;28;20198;-85
2021/08/18 02:03:29;;;;;;;5.30;4.80;;;;;;;;;;5017111;28;20191;-85
2021/08/18 02:05:55;;;;;;;5.30;4.90;;;;;;;;;;5016344;28;20188;-85
2021/08/18 02:08:21;;;;;;;5.27;4.83;;;;;;;;;;5016886;28;20202;-85
2021/08/18 02:10:47;;;;;;;6.10;5.50;;;;;;;;;;5029172;28;20170;-85
2021/08/18 02:13:13;;;;;;;6.00;5.40;;;;;;;;;;5014463;28;20272;-84
2021/08/18 02:15:39;;;;;;;6.33;5.83;;;;;;;;;;5022308;28;20185;-85
2021/08/18 02:18:07;;;;;;;5.80;5.30;;;;;;;;;;5016836;28;20189;-84
2021/08/18 02:20:35;;;;;;;5.90;5.40;;;;;;;;;;5015664;28;20339;-85
2021/08/18 02:23:02;;;;;;;6.60;6.00;;;;;;;;;;5016419;28;20193;-85
2021/08/18 02:25:28;;;;;;;6.10;5.60;;;;;;;;;;5016210;28;20652;-85
2021/08/18 02:27:54;;;;;;;6.57;6.07;;;;;;;;;;5030817;28;20228;-85
2021/08/18 02:30:22;;;;;;;6.20;5.63;;;;;;;;;;5024293;28;20177;-85
2021/08/18 02:32:48;;;;;;;7.97;6.17;;;;;;;;;;5014335;28;20184;-85
2021/08/18 02:35:14;;;;;;;7.23;6.30;;;;;;;;;;5014864;28;20280;-85
2021/08/18 02:37:40;;;;;;;6.37;5.87;;;;;;;;;;5021487;28;20216;-85
2021/08/18 02:40:07;;;;;;;7.40;6.53;;;;;;;;;;5016325;28;20192;-84
2021/08/18 02:42:33;;;;;;;7.30;6.70;;;;;;;;;;5011627;28;20260;-85
2021/08/18 02:45:00;;;;;;;7.17;6.47;;;;;;;;;;5019531;28;20276;-85
2021/08/18 02:47:26;;;;;;;8.60;6.40;;;;;;;;;;5013522;28;20698;-85
2021/08/18 02:49:52;;;;;;;7.30;6.60;;;;;;;;;;5015700;28;20632;-84
2021/08/18 02:52:18;;;;;;;7.17;6.53;;;;;;;;;;5014565;28;20236;-84
2021/08/18 02:54:45;;;;;;;6.53;5.80;;;;;;;;;;5016774;28;20188;-85
2021/08/18 02:57:11;;;;;;;7.80;7.00;;;;;;;;;;5014739;28;20656;-85
2021/08/18 02:59:37;;;;;;;7.40;6.70;;;;;;;;;;5023563;28;20181;-85
2021/08/18 03:02:03;;;;;;;7.77;7.07;;;;;;;;;;5014541;28;20644;-85
2021/08/18 03:04:29;;;;;;;8.10;7.37;;;;;;;;;;5025344;28;20283;-85
2021/08/18 03:06:55;;;;;;;8.80;6.93;;;;;;;;;;5029891;28;20206;-85
2021/08/18 03:09:22;;;;;;;7.20;6.43;;;;;;;;;;5032154;28;20206;-85
2021/08/18 03:11:49;;;;;;;6.67;6.07;;;;;;;;;;5014853;28;20281;-85
2021/08/18 03:14:15;;;;;;;7.00;6.40;;;;;;;;;;5014588;28;20182;-84
2021/08/18 03:16:41;;;;;;;7.63;6.83;;;;;;;;;;5028453;28;20189;-85
2021/08/18 03:19:07;;;;;;;8.30;6.13;;;;;;;;;;5007633;28;20194;-84
2021/08/18 03:21:33;;;;;;;6.90;6.20;;;;;;;;;;5032041;28;20185;-85
2021/08/18 03:23:59;;;;;;;8.50;7.70;;;;;;;;;;5031426;28;20663;-85
2021/08/18 03:26:25;;;;;;;7.70;7.00;;;;;;;;;;5015019;28;20215;-85
2021/08/18 03:28:52;;;;;;;7.13;6.43;;;;;;;;;;5017528;28;20240;-85
2021/08/18 03:31:18;;;;;;;7.00;6.40;;;;;;;;;;5016467;28;20205;-85
2021/08/18 03:33:44;;;;;;;7.43;6.77;;;;;;;;;;5015803;28;20227;-85
2021/08/18 03:36:10;;;;;;;7.33;6.73;;;;;;;;;;5015402;28;20186;-84
2021/08/18 03:38:36;;;;;;;8.23;7.53;;;;;;;;;;5032682;28;20869;-85
2021/08/18 03:41:02;;;;;;;9.80;7.73;;;;;;;;;;5011860;28;20193;-85
2021/08/18 03:43:28;;;;;;;8.57;7.17;;;;;;;;;;5014646;28;20645;-84
2021/08/18 03:45:54;;;;;;;7.53;6.83;;;;;;;;;;5015398;28;20186;-85
2021/08/18 03:48:21;;;;;;;8.73;7.93;;;;;;;;;;5034191;28;20209;-85
2021/08/18 03:50:47;;;;;;;8.23;7.53;;;;;;;;;;5015027;28;20177;-85
2021/08/18 03:53:13;;;;;;;8.50;7.50;;;;;;;;;;5016197;28;20235;-85
2021/08/18 03:55:39;;;;;;;6.90;6.23;;;;;;;;;;5013566;28;20229;-85
2021/08/18 03:58:05;;;;;;;8.33;7.53;;;;;;;;;;5012068;28;20201;-85
2021/08/18 04:00:31;;;;;;;7.57;6.87;;;;;;;;;;5027199;28;20185;-85
2021/08/18 04:02:57;;;;;;;8.03;7.23;;;;;;;;;;5017152;28;20259;-85
2021/08/18 04:05:23;;;;;;;8.13;7.37;;;;;;;;;;5016802;28;20217;-85
2021/08/18 04:07:49;;;;;;;7.37;6.63;;;;;;;;;;5010690;28;20214;-85
2021/08/18 04:10:16;;;;;;;7.80;7.10;;;;;;;;;;5020741;28;20517;-85
2021/08/18 04:12:49;;;;;;;8.43;7.57;;;;;;;;;;5016062;28;20192;-85
2021/08/18 04:15:15;;;;;;;9.83;7.20;;;;;;;;;;5014518;28;20201;-85
2021/08/18 04:17:41;;;;;;;7.33;6.67;;;;;;;;;;5037127;28;20241;-85
2021/08/18 04:20:07;;;;;;;7.63;6.93;;;;;;;;;;5016843;28;20267;-85
2021/08/18 04:22:33;;;;;;;7.30;6.70;;;;;;;;;;5006129;28;20235;-86
2021/08/18 04:24:59;;;;;;;7.60;6.90;;;;;;;;;;5013277;28;20239;-85
2021/08/18 04:27:25;;;;;;;7.63;6.90;;;;;;;;;;5012075;28;20216;-85
2021/08/18 04:29:51;;;;;;;7.40;6.73;;;;;;;;;;5011155;28;20182;-85
2021/08/18 04:32:17;;;;;;;7.60;6.70;;;;;;;;;;5010613;28;20193;-85
2021/08/18 04:34:43;;;;;;;7.93;7.00;;;;;;;;;;5010028;28;20209;-85
2021/08/18 04:37:10;;;;;;;7.87;7.07;;;;;;;;;;5013701;28;20516;-85
2021/08/18 04:39:36;;;;;;;8.00;6.53;;;;;;;;;;5009643;28;20206;-85
2021/08/18 04:42:02;;;;;;;6.73;6.13;;;;;;;;;;5015291;28;20609;-85
2021/08/18 04:44:28;;;;;;;7.80;6.57;;;;;;;;;;5024353;28;20270;-86
2021/08/18 04:46:54;;;;;;;7.83;6.37;;;;;;;;;;5022250;28;20266;-85
2021/08/18 04:49:20;;;;;;;6.13;5.63;;;;;;;;;;5024261;28;20213;-84
2021/08/18 04:51:46;;;;;;;6.20;5.60;;;;;;;;;;5008722;28;20681;-85
2021/08/18 04:54:12;;;;;;;6.20;5.60;;;;;;;;;;5005969;28;20186;-85
2021/08/18 04:56:38;;;;;;;6.57;5.90;;;;;;;;;;5021149;28;20222;-85
2021/08/18 04:59:04;;;;;;;6.10;5.43;;;;;;;;;;5006844;28;20182;-85
2021/08/18 05:01:30;;;;;;;6.00;4.67;;;;;;;;;;5026153;28;20187;-85
2021/08/18 05:03:56;;;;;;;5.17;4.77;;;;;;;;;;5008452;28;20191;-85
2021/08/18 05:06:22;;;;;;;6.10;5.20;;;;;;;;;;5022063;28;20440;-85
2021/08/18 05:08:49;;;;;;;4.97;4.53;;;;;;;;;;5008595;28;20669;-86
2021/08/18 05:11:15;;;;;;;5.10;4.70;;;;;;;;;;5014535;28;20236;-85
2021/08/18 05:13:41;;;;;;;4.67;4.00;;;;;;;;;;5016510;28;20185;-85
2021/08/18 05:16:07;;;;;;;4.60;4.20;;;;;;;;;;5010892;28;20175;-85
2021/08/18 05:18:33;;;;;;;4.60;4.20;;;;;;;;;;5035816;28;20197;-85
2021/08/18 05:21:01;;;;;;;4.23;3.83;;;;;;;;;;5019049;28;20190;-86
2021/08/18 05:23:27;;;;;;;4.10;3.70;;;;;;;;;;5021876;28;20216;-85
2021/08/18 05:25:53;;;;;;;3.90;3.53;;;;;;;;;;5017438;28;20178;-84
2021/08/18 05:28:19;;;;;;;3.93;3.50;;;;;;;;;;5016113;28;20617;-84
2021/08/18 05:30:45;;;;;;;3.87;3.33;;;;;;;;;;5015133;28;20284;-84
2021/08/18 05:33:12;;;;;;;3.30;3.07;;;;;;;;;;5036385;28;20513;-84
2021/08/18 05:35:38;;;;;;;3.33;3.03;;;;;;;;;;5017244;28;20204;-85
2021/08/18 05:38:04;;;;;;;4.00;3.63;;;;;;;;;;5011864;28;20517;-85
2021/08/18 05:40:30;;;;;;;3.30;3.00;;;;;;;;;;5016286;28;20190;-85
2021/08/18 05:42:56;;;;;;;4.57;2.80;;;;;;;;;;5031958;28;20236;-85
2021/08/18 05:45:22;;;;;;;2.80;2.60;;;;;;;;;;5015289;28;20240;-85
2021/08/18 05:47:48;;;;;;;5.03;2.80;;;;;;;;;;5016688;28;20302;-86
2021/08/18 05:50:14;;;;;;;2.90;2.70;;;;;;;;;;5016196;28;20224;-84
2021/08/18 05:52:40;;;;;;;3.47;3.17;;;;;;;;;;5014155;28;20184;-82
2021/08/18 05:55:06;;;;;;;3.37;3.07;;;;;;;;;;5011285;28;20321;-84
2021/08/18 05:57:34;;;;;;;4.00;3.60;;;;;;;;;;5012873;28;20326;-83
2021/08/18 06:00:00;;;;;;;4.03;3.57;;;;;;;;;;5003187;28;20212;-84
2021/08/18 06:02:26;;;;;;;4.47;3.83;;;;;;;;;;5010340;28;20182;-84
2021/08/18 06:04:52;;;;;;;9.73;4.50;;;;;;;;;;5014822;28;20185;-83
2021/08/18 06:07:19;;;;;;;4.83;4.00;;;;;;;;;;5014409;28;20198;-84
2021/08/18 06:09:45;;;;;;;4.23;3.83;;;;;;;;;;5016465;28;20180;-84
2021/08/18 06:12:11;;;;;;;7.93;4.67;;;;;;;;;;5001494;28;20186;-83
2021/08/18 06:14:37;;;;;;;6.63;5.93;;;;;;;;;;5002613;28;20275;-83
2021/08/18 06:17:03;;;;;;;8.73;6.80;;;;;;;;;;5004308;28;20354;-83
2021/08/18 06:19:29;;;;;;;8.33;7.00;;;;;;;;;;5013587;28;20187;-83
2021/08/18 06:21:55;;;;;;;6.80;6.07;;;;;;;;;;5010803;28;20570;-83
2021/08/18 06:26:47;;;;;;;9.43;8.50;;;;;;;;;;5013096;28;20563;-83
2021/08/18 06:29:14;;;;;;;12.40;11.17;;;;;;;;;;5005817;28;20281;-83
2021/08/18 06:31:40;;;;;;;15.07;13.47;;;;;;;;;;5010811;28;20183;-83
2021/08/18 06:34:06;;;;;;;18.63;16.03;;;;;;;;;;5007873;28;20179;-85
2021/08/18 06:36:32;;;;;;;15.43;13.83;;;;;;;;;;5000989;28;20182;-84
2021/08/18 06:38:58;;;;;;;19.83;17.70;;;;;;;;;;5012305;28;20193;-84
2021/08/18 06:41:24;;;;;;;26.23;18.40;;;;;;;;;;5012847;28;20183;-84
2021/08/18 06:43:51;;;;;;;24.00;18.97;;;;;;;;;;5009394;28;20679;-83
2021/08/18 06:46:17;;;;;;;24.80;20.53;;;;;;;;;;4995702;28;20190;-84
2021/08/18 06:48:43;;;;;;;22.43;18.70;;;;;;;;;;5012449;28;20192;-84
2021/08/18 06:51:09;;;;;;;23.53;20.03;;;;;;;;;;5010463;28;20193;-84
2021/08/18 06:53:35;;;;;;;22.60;19.53;;;;;;;;;;5017282;28;20193;-84
2021/08/18 06:56:02;;;;;;;24.63;19.93;;;;;;;;;;5013936;28;20252;-84
2021/08/18 06:58:28;;;;;;;24.47;20.07;;;;;;;;;;5031324;28;20174;-84
2021/08/18 07:00:54;;;;;;;24.77;20.83;;;;;;;;;;5033156;28;20541;-84
2021/08/18 07:03:21;;;;;;;24.90;20.10;;;;;;;;;;5015636;28;20174;-84
2021/08/18 07:05:47;;;;;;;26.83;20.80;;;;;;;;;;5009961;28;20225;-84
2021/08/18 07:08:13;;;;;;;22.70;19.10;;;;;;;;;;5018228;28;20229;-84
2021/08/18 07:10:39;;;;;;;24.00;20.67;;;;;;;;;;5018608;28;20177;-84
2021/08/18 07:13:05;;;;;;;25.60;22.37;;;;;;;;;;5018092;28;20173;-84
2021/08/18 07:15:31;;;;;;;25.30;19.90;;;;;;;;;;5018135;28;20178;-84
2021/08/18 07:17:57;;;;;;;22.93;19.53;;;;;;;;;;5019408;28;20182;-83
2021/08/18 07:20:23;;;;;;;21.50;19.20;;;;;;;;;;5032527;28;20185;-83
2021/08/18 07:22:49;;;;;;;22.63;20.23;;;;;;;;;;5013700;28;20197;-83
2021/08/18 07:25:15;;;;;;;20.97;18.77;;;;;;;;;;5014888;28;20170;-83
2021/08/18 07:27:41;;;;;;;23.30;19.30;;;;;;;;;;5016791;28;20623;-82
2021/08/18 07:30:08;;;;;;;23.60;20.03;;;;;;;;;;5022776;28;20193;-83
2021/08/18 07:32:35;;;;;;;27.40;20.73;;;;;;;;;;5014371;28;20399;-84
2021/08/18 07:35:01;;;;;;;21.00;18.73;;;;;;;;;;5020989;28;20292;-84
2021/08/18 07:37:29;;;;;;;22.90;20.43;;;;;;;;;;5033149;28;20185;-83
2021/08/18 07:39:55;;;;;;;22.10;18.83;;;;;;;;;;5017820;28;20628;-83
2021/08/18 07:42:21;;;;;;;21.03;18.87;;;;;;;;;;5031062;28;20199;-83
2021/08/18 07:44:47;;;;;;;21.37;19.23;;;;;;;;;;5010664;28;20182;-83
2021/08/18 07:47:13;;;;;;;20.17;18.10;;;;;;;;;;5012993;28;21775;-85
2021/08/18 07:49:39;;;;;;;22.23;19.93;;;;;;;;;;5012939;28;20186;-86
2021/08/18 07:52:06;;;;;;;21.20;19.00;;;;;;;;;;5015413;28;20236;-86
2021/08/18 07:54:33;;;;;;;22.67;18.47;;;;;;;;;;5031868;28;20186;-86
2021/08/18 07:56:59;;;;;;;19.80;17.47;;;;;;;;;;4997879;28;20234;-86
2021/08/18 07:59:25;;;;;;;22.20;18.90;;;;;;;;;;4994658;28;20208;-85
2021/08/18 08:01:51;;;;;;;19.17;17.20;;;;;;;;;;5008455;28;20183;-85
2021/08/18 08:04:17;;;;;;;19.63;17.63;;;;;;;;;;4993563;28;20260;-86
2021/08/18 08:06:44;;;;;;;19.77;17.77;;;;;;;;;;4998474;28;20211;-86
2021/08/18 08:09:14;;;;;;;18.57;16.57;;;;;;;;;;4998024;28;20609;-86
2021/08/18 08:11:40;;;;;;;19.20;17.20;;;;;;;;;;5009489;28;20183;-86
2021/08/18 08:14:06;;;;;;;20.10;17.63;;;;;;;;;;5016755;28;20193;-84
2021/08/18 08:16:32;;;;;;;21.57;18.67;;;;;;;;;;4996244;28;20190;-87
2021/08/18 08:18:58;;;;;;;20.83;18.53;;;;;;;;;;5011837;28;20215;-87
2021/08/18 08:21:25;;;;;;;19.30;17.30;;;;;;;;;;4996233;28;20190;-86
2021/08/18 08:23:51;;;;;;;18.43;16.43;;;;;;;;;;4996181;28;20313;-87
2021/08/18 08:26:17;;;;;;;18.30;16.43;;;;;;;;;;5007210;28;20330;-87
2021/08/18 08:28:43;;;;;;;19.43;16.47;;;;;;;;;;4998194;28;20214;-86
2021/08/18 08:31:09;;;;;;;18.63;16.73;;;;;;;;;;5023041;28;20171;-87
2021/08/18 08:33:35;;;;;;;18.97;16.97;;;;;;;;;;5000016;28;20217;-87
2021/08/18 08:36:01;;;;;;;18.23;16.27;;;;;;;;;;5013866;28;20183;-87
2021/08/18 08:38:27;;;;;;;19.10;17.20;;;;;;;;;;5015745;28;20173;-87
2021/08/18 08:40:53;;;;;;;16.87;15.30;;;;;;;;;;5013820;28;20196;-86
2021/08/18 08:43:19;;;;;;;18.33;16.47;;;;;;;;;;5018647;28;20240;-87
2021/08/18 08:45:47;;;;;;;16.70;15.13;;;;;;;;;;5014846;28;20183;-87
2021/08/18 08:48:16;;;;;;;16.70;15.10;;;;;;;;;;5015262;28;20186;-86
2021/08/18 08:50:44;;;;;;;16.67;15.07;;;;;;;;;;5017458;28;20175;-87
2021/08/18 08:53:10;;;;;;;17.77;16.10;;;;;;;;;;5017193;28;20242;-86
2021/08/18 08:55:36;;;;;;;18.10;16.40;;;;;;;;;;5025218;28;20217;-87
2021/08/18 08:58:02;;;;;;;16.27;14.63;;;;;;;;;;5028593;28;20633;-87
2021/08/18 09:00:28;;;;;;;16.73;15.13;;;;;;;;;;5033075;28;20186;-87
2021/08/18 09:03:15;;;;;;;17.30;15.70;;;;;;;;;;5036833;28;20198;-87
2021/08/18 09:05:41;;;;;;;16.83;15.17;;;;;;;;;;5021284;28;21093;-87
2021/08/18 09:08:18;;;;;;;20.17;18.17;;;;;;;;;;5015039;28;20459;-87
2021/08/18 09:11:03;;;;;;;18.00;16.20;;;;;;;;;;5024478;28;20173;-87
2021/08/18 09:13:37;;;;;;;18.07;16.27;;;;;;;;;;5020272;28;20178;-87
2021/08/18 09:16:05;;;;;;;17.33;15.73;;;;;;;;;;5017422;28;20173;-87
2021/08/18 09:18:43;;;;;;;18.17;16.47;;;;;;;;;;5013004;28;20660;-87
2021/08/18 09:21:28;;;;;;;16.50;14.97;;;;;;;;;;5036134;28;20186;-87
2021/08/18 09:24:12;;;;;;;16.17;14.67;;;;;;;;;;5014434;28;20573;-87
2021/08/18 09:26:43;;;;;;;18.03;16.20;;;;;;;;;;5031867;28;20724;-87
2021/08/18 09:29:10;;;;;;;17.20;15.50;;;;;;;;;;5016182;28;20292;-87
2021/08/18 09:31:36;;;;;;;17.37;15.57;;;;;;;;;;5017772;28;20178;-87
2021/08/18 09:34:02;;;;;;;17.27;15.60;;;;;;;;;;5014467;28;20265;-86
2021/08/18 09:36:33;;;;;;;15.30;13.83;;;;;;;;;;5014933;28;20554;-86
2021/08/18 09:39:17;;;;;;;17.03;15.33;;;;;;;;;;5028809;28;20190;-87
2021/08/18 09:41:43;;;;;;;15.67;13.67;;;;;;;;;;5013816;28;20182;-86
2021/08/18 09:44:10;;;;;;;15.73;14.23;;;;;;;;;;5015993;28;20475;-86
2021/08/18 09:46:36;;;;;;;14.20;12.90;;;;;;;;;;5018499;28;20511;-86
2021/08/18 09:49:06;;;;;;;15.93;14.33;;;;;;;;;;5007767;28;20677;-86
2021/08/18 09:51:32;;;;;;;14.80;13.43;;;;;;;;;;5017661;28;20194;-87
2021/08/18 09:54:11;;;;;;;14.97;13.37;;;;;;;;;;5036175;28;20206;-86
2021/08/18 09:56:45;;;;;;;13.93;12.70;;;;;;;;;;5001654;28;20214;-86
2021/08/18 09:59:12;;;;;;;13.70;12.30;;;;;;;;;;5004282;28;20227;-86
2021/08/18 10:01:39;;;;;;;12.93;11.63;;;;;;;;;;5015481;28;20582;-86
2021/08/18 10:04:05;;;;;;;13.63;12.30;;;;;;;;;;5010057;28;20186;-85
2021/08/18 10:06:32;;;;;;;12.13;11.03;;;;;;;;;;5015329;28;20213;-86
2021/08/18 10:08:58;;;;;;;12.73;11.60;;;;;;;;;;5008760;28;20210;-85
2021/08/18 10:11:26;;;;;;;12.53;11.13;;;;;;;;;;5000053;28;20215;-86
2021/08/18 10:13:52;;;;;;;12.83;11.73;;;;;;;;;;5010753;28;20193;-86
2021/08/18 10:16:19;;;;;;;13.10;11.80;;;;;;;;;;4996686;28;20183;-86
2021/08/18 10:18:46;;;;;;;11.17;10.07;;;;;;;;;;5003434;28;20607;-86
2021/08/18 10:21:17;;;;;;;11.77;10.73;;;;;;;;;;5007935;28;20189;-86
2021/08/18 10:23:57;;;;;;;12.13;11.03;;;;;;;;;;5011396;28;20182;-86
2021/08/18 10:29:01;;;;;;;11.57;10.47;;;;;;;;;;5013238;28;20205;-86
2021/08/18 10:31:53;;;;;;;10.70;9.60;;;;;;;;;;5009442;28;20189;-85
2021/08/18 10:34:19;;;;;;;10.53;9.63;;;;;;;;;;4982905;28;20704;-86
2021/08/18 10:36:45;;;;;;;10.60;9.50;;;;;;;;;;5000311;28;20175;-86
2021/08/18 10:42:08;;;;;;;9.63;8.73;;;;;;;;;;5014151;28;20286;-86
2021/08/18 10:44:35;;;;;;;9.17;8.27;;;;;;;;;;5012833;28;20216;-86
2021/08/18 10:47:11;;;;;;;9.07;8.27;;;;;;;;;;5016557;28;20489;-86
2021/08/18 10:49:37;;;;;;;8.50;7.70;;;;;;;;;;4997578;28;20200;-86
2021/08/18 10:52:05;;;;;;;8.73;8.03;;;;;;;;;;4997423;28;20179;-86
2021/08/18 10:54:31;;;;;;;8.30;7.50;;;;;;;;;;4996436;28;20184;-86
2021/08/18 10:56:58;;;;;;;7.97;7.20;;;;;;;;;;5028843;28;20371;-86
2021/08/18 10:59:36;;;;;;;7.80;7.10;;;;;;;;;;5013983;28;20191;-86
2021/08/18 11:02:03;;;;;;;7.97;7.30;;;;;;;;;;5014315;28;20621;-86
2021/08/18 11:04:45;;;;;;;7.53;6.93;;;;;;;;;;5007088;28;20440;-86
2021/08/18 11:07:12;;;;;;;7.53;6.87;;;;;;;;;;5027988;28;20205;-86
2021/08/18 11:09:50;;;;;;;6.70;6.10;;;;;;;;;;5026833;28;20204;-86
2021/08/18 11:12:35;;;;;;;7.23;6.63;;;;;;;;;;5012861;28;20179;-86
2021/08/18 11:15:01;;;;;;;6.63;6.03;;;;;;;;;;5024223;28;20183;-86
2021/08/18 11:17:27;;;;;;;6.80;6.20;;;;;;;;;;5024832;28;20180;-86
2021/08/18 11:19:54;;;;;;;6.53;5.93;;;;;;;;;;5011206;28;20186;-86
2021/08/18 11:22:20;;;;;;;6.10;5.60;;;;;;;;;;5013439;28;20188;-86
2021/08/18 11:24:46;;;;;;;6.03;5.57;;;;;;;;;;5027096;28;20191;-85
2021/08/18 11:27:17;;;;;;;5.80;5.30;;;;;;;;;;5013699;28;20181;-86
2021/08/18 11:29:43;;;;;;;6.37;5.83;;;;;;;;;;5028784;28;20501;-85
2021/08/18 11:32:09;;;;;;;6.93;6.33;;;;;;;;;;5007998;28;20184;-86
2021/08/18 11:34:37;;;;;;;5.50;5.10;;;;;;;;;;5029325;28;20182;-86
2021/08/18 11:37:12;;;;;;;6.03;5.53;;;;;;;;;;5008294;28;20529;-86
2021/08/18 11:39:39;;;;;;;5.63;5.20;;;;;;;;;;5005679;28;20234;-86
2021/08/18 11:42:19;;;;;;;5.70;5.20;;;;;;;;;;5013083;28;20182;-86
2021/08/18 11:44:46;;;;;;;4.80;4.40;;;;;;;;;;5008152;28;20182;-86
2021/08/18 11:47:14;;;;;;;5.50;5.10;;;;;;;;;;5030089;28;20500;-85
2021/08/18 11:49:40;;;;;;;5.23;4.80;;;;;;;;;;5012783;28;20309;-85
2021/08/18 11:52:07;;;;;;;4.33;4.00;;;;;;;;;;5007016;28;20174;-85
2021/08/18 11:54:34;;;;;;;5.47;4.97;;;;;;;;;;5013574;28;20641;-85
2021/08/18 11:57:07;;;;;;;3.87;3.57;;;;;;;;;;5011026;28;20306;-86
2021/08/18 11:59:34;;;;;;;4.33;3.93;;;;;;;;;;5012965;28;20586;-86
2021/08/18 12:02:00;;;;;;;4.27;3.70;;;;;;;;;;5015135;28;20185;-86
2021/08/18 12:04:27;;;;;;;3.87;3.47;;;;;;;;;;5010066;28;20327;-86
2021/08/18 12:07:13;;;;;;;3.57;3.27;;;;;;;;;;5030704;28;20209;-85
2021/08/18 12:09:40;;;;;;;3.77;3.47;;;;;;;;;;5011021;28;20262;-85
2021/08/18 12:12:08;;;;;;;3.70;3.40;;;;;;;;;;5010916;28;20965;-85
2021/08/18 12:14:39;;;;;;;4.47;3.67;;;;;;;;;;5015790;28;20174;-85
2021/08/18 12:17:05;;;;;;;3.80;3.50;;;;;;;;;;5000924;28;20589;-85
2021/08/18 12:19:36;;;;;;;5.07;4.60;;;;;;;;;;5016958;28;20185;-85
2021/08/18 12:22:06;;;;;;;6.80;4.27;;;;;;;;;;5018558;28;20210;-85
2021/08/18 12:24:33;;;;;;;4.10;3.70;;;;;;;;;;5016683;28;20186;-85
2021/08/18 12:27:00;;;;;;;4.77;4.37;;;;;;;;;;5033887;28;20181;-85
2021/08/18 12:29:27;;;;;;;4.17;3.87;;;;;;;;;;5037067;28;20197;-85
2021/08/18 12:31:54;;;;;;;5.40;4.10;;;;;;;;;;5019998;28;20182;-85
2021/08/18 12:34:29;;;;;;;4.93;4.53;;;;;;;;;;5017840;28;20269;-86
2021/08/18 12:36:59;;;;;;;5.13;4.73;;;;;;;;;;5022799;28;20509;-86
2021/08/18 12:39:36;;;;;;;4.67;4.27;;;;;;;;;;5034848;28;20258;-85
2021/08/18 12:42:03;;;;;;;5.30;4.80;;;;;;;;;;5034215;28;20201;-85
2021/08/18 12:44:33;;;;;;;4.70;4.30;;;;;;;;;;5036784;28;20196;-85
2021/08/18 12:47:11;;;;;;;4.60;4.20;;;;;;;;;;5052946;28;20174;-86
2021/08/18 12:49:37;;;;;;;4.70;4.30;;;;;;;;;;5040338;28;20225;-85
2021/08/18 12:52:05;;;;;;;4.77;4.37;;;;;;;;;;5015339;28;20189;-85
2021/08/18 12:54:32;;;;;;;4.60;4.20;;;;;;;;;;5020912;28;20686;-85
2021/08/18 12:57:00;;;;;;;5.00;4.60;;;;;;;;;;5019019;28;20218;-85
2021/08/18 12:59:26;;;;;;;5.57;4.50;;;;;;;;;;5035587;28;20182;-85
2021/08/18 13:01:52;;;;;;;5.03;4.53;;;;;;;;;;5024837;28;20185;-85
2021/08/18 13:04:18;;;;;;;5.57;5.07;;;;;;;;;;5027708;28;20251;-85
2021/08/18 13:06:44;;;;;;;5.60;5.10;;;;;;;;;;5017850;28;20193;-86
2021/08/18 13:09:10;;;;;;;5.33;4.93;;;;;;;;;;5015171;28;20216;-86
2021/08/18 13:11:37;;;;;;;4.80;4.40;;;;;;;;;;5015530;28;20178;-86
2021/08/18 13:14:03;;;;;;;7.13;5.27;;;;;;;;;;5016357;28;20249;-85
2021/08/18 13:16:29;;;;;;;5.70;5.10;;;;;;;;;;5018217;28;20177;-86
2021/08/18 13:18:55;;;;;;;5.87;5.30;;;;;;;;;;5018131;28;20300;-86
2021/08/18 13:21:21;;;;;;;5.33;4.83;;;;;;;;;;5017563;28;20193;-86
2021/08/18 13:23:47;;;;;;;6.00;5.43;;;;;;;;;;5037014;28;20195;-86
2021/08/18 13:26:13;;;;;;;5.50;5.00;;;;;;;;;;5035069;28;22062;-86
2021/08/18 13:28:43;;;;;;;5.67;5.17;;;;;;;;;;5033446;28;20236;-86
2021/08/18 13:31:09;;;;;;;5.60;5.10;;;;;;;;;;5021823;28;20208;-86
2021/08/18 13:33:35;;;;;;;5.07;4.67;;;;;;;;;;5018798;28;20189;-86
2021/08/18 13:36:01;;;;;;;5.43;4.93;;;;;;;;;;5016758;28;20181;-86
2021/08/18 13:38:31;;;;;;;5.57;4.97;;;;;;;;;;5018426;28;20269;-86
2021/08/18 13:40:57;;;;;;;5.33;4.87;;;;;;;;;;5018659;28;20272;-86
2021/08/18 13:43:25;;;;;;;5.67;5.17;;;;;;;;;;5018050;28;20862;-86
2021/08/18 13:45:51;;;;;;;6.93;5.43;;;;;;;;;;5033820;28;20174;-85
2021/08/18 13:48:18;;;;;;;5.93;5.43;;;;;;;;;;5017685;28;20566;-86
2021/08/18 13:50:44;;;;;;;6.03;5.43;;;;;;;;;;5015493;28;20243;-85
2021/08/18 13:53:10;;;;;;;6.50;5.90;;;;;;;;;;5016359;28;20178;-85
2021/08/18 13:55:37;;;;;;;6.33;5.47;;;;;;;;;;5011325;28;20222;-85
2021/08/18 13:58:05;;;;;;;5.83;5.10;;;;;;;;;;5025556;28;20875;-86
2021/08/18 14:00:31;;;;;;;6.47;5.87;;;;;;;;;;5012214;28;20264;-85
2021/08/18 14:02:57;;;;;;;6.03;5.43;;;;;;;;;;5003225;28;20244;-86
2021/08/18 14:05:23;;;;;;;7.37;5.10;;;;;;;;;;5002880;28;20572;-85
2021/08/18 14:07:50;;;;;;;5.63;5.13;;;;;;;;;;5012674;28;20558;-86
2021/08/18 14:10:16;;;;;;;6.77;6.07;;;;;;;;;;5002652;28;20226;-86
2021/08/18 14:12:42;;;;;;;7.17;5.93;;;;;;;;;;5005076;28;20166;-86
2021/08/18 14:15:08;;;;;;;5.50;5.00;;;;;;;;;;5001413;28;20204;-85
2021/08/18 14:17:34;;;;;;;5.80;5.27;;;;;;;;;;5000350;28;20181;-85
2021/08/18 14:20:02;;;;;;;5.90;5.33;;;;;;;;;;5028651;28;20175;-85
2021/08/18 14:22:28;;;;;;;5.47;4.93;;;;;;;;;;5008098;28;20925;-85
2021/08/18 14:24:54;;;;;;;5.47;4.97;;;;;;;;;;4997775;28;20804;-86
2021/08/18 14:27:20;;;;;;;5.50;5.00;;;;;;;;;;5015962;28;20268;-86
2021/08/18 14:29:46;;;;;;;5.57;5.13;;;;;;;;;;5010769;28;20198;-85
2021/08/18 14:32:12;;;;;;;6.33;5.40;;;;;;;;;;4995897;28;20174;-85
2021/08/18 14:34:38;;;;;;;5.90;5.40;;;;;;;;;;4994831;28;20181;-85
2021/08/18 14:37:05;;;;;;;5.90;5.33;;;;;;;;;;4995778;28;20264;-85
2021/08/18 14:39:31;;;;;;;5.60;5.10;;;;;;;;;;4996400;28;20579;-86
2021/08/18 14:41:57;;;;;;;5.57;5.13;;;;;;;;;;5006965;28;20235;-85
2021/08/18 14:44:24;;;;;;;6.73;6.03;;;;;;;;;;5012204;28;20209;-85